Kondopoga, Russia
Current Conditions -  °F | °C
As of 10:00 PM on Thursday 23 Oct 2014 (Local Time) from ULPB Reporting Station
NA  
Wind Chill: 19°   Ceiling: NA
Heat Index: 25°   Visibility: 6mi
Dew Point: 23°   Wind: 4mph
Humidity: 93%   Direction: 10°N
Pressure: 30.62"   Gusts: NA
Location:  62.2°N, 34.28°E
Report Text: ULPB 231900Z AUTO 01002MPS 340V040 9999 ////// M04/M05 Q1037
Loading
Personal Weather Stations






























Interactive Weather Map
Tropical Storm Tracking
New forecast layout! Learn more

10-Day Weather Forecast

Advertisements
Track Severe Weather on mobile